sensor_id;sensor_type;location;lat;lon;timestamp;P1;durP1;ratioP1;P2;durP2;ratioP2
25917;SDS011;13899;51.174;4.456;2024-01-27T00:01:42;19.27;;;8.63;;
25917;SDS011;13899;51.174;4.456;2024-01-27T00:04:08;20.20;;;8.67;;
25917;SDS011;13899;51.174;4.456;2024-01-27T00:06:33;17.00;;;8.87;;
25917;SDS011;13899;51.174;4.456;2024-01-27T00:08:59;17.87;;;8.50;;
25917;SDS011;13899;51.174;4.456;2024-01-27T00:11:25;17.53;;;8.17;;
25917;SDS011;13899;51.174;4.456;2024-01-27T00:13:51;15.10;;;8.05;;
25917;SDS011;13899;51.174;4.456;2024-01-27T00:16:17;16.10;;;8.23;;
25917;SDS011;13899;51.174;4.456;2024-01-27T00:18:43;17.17;;;9.63;;
25917;SDS011;13899;51.174;4.456;2024-01-27T00:21:08;14.83;;;9.40;;
25917;SDS011;13899;51.174;4.456;2024-01-27T00:23:34;20.40;;;10.63;;
25917;SDS011;13899;51.174;4.456;2024-01-27T00:26:03;15.63;;;10.40;;
25917;SDS011;13899;51.174;4.456;2024-01-27T00:28:29;26.05;;;8.18;;
25917;SDS011;13899;51.174;4.456;2024-01-27T00:30:54;16.60;;;9.47;;
25917;SDS011;13899;51.174;4.456;2024-01-27T00:33:21;15.00;;;7.57;;
25917;SDS011;13899;51.174;4.456;2024-01-27T00:35:46;16.77;;;7.60;;
25917;SDS011;13899;51.174;4.456;2024-01-27T00:38:12;16.00;;;7.80;;
25917;SDS011;13899;51.174;4.456;2024-01-27T00:40:38;19.53;;;7.97;;
25917;SDS011;13899;51.174;4.456;2024-01-27T00:43:04;18.73;;;7.80;;
25917;SDS011;13899;51.174;4.456;2024-01-27T00:45:29;19.30;;;8.03;;
25917;SDS011;13899;51.174;4.456;2024-01-27T00:47:58;13.10;;;7.90;;
25917;SDS011;13899;51.174;4.456;2024-01-27T00:50:24;14.00;;;7.25;;
25917;SDS011;13899;51.174;4.456;2024-01-27T00:52:50;18.40;;;5.80;;
25917;SDS011;13899;51.174;4.456;2024-01-27T00:55:15;14.50;;;7.37;;
25917;SDS011;13899;51.174;4.456;2024-01-27T00:57:42;15.48;;;7.13;;
25917;SDS011;13899;51.174;4.456;2024-01-27T01:00:08;16.25;;;8.82;;
25917;SDS011;13899;51.174;4.456;2024-01-27T01:05:01;14.40;;;7.95;;
25917;SDS011;13899;51.174;4.456;2024-01-27T01:07:29;17.80;;;8.40;;
25917;SDS011;13899;51.174;4.456;2024-01-27T01:09:55;14.68;;;8.25;;
25917;SDS011;13899;51.174;4.456;2024-01-27T01:12:20;15.90;;;8.17;;
25917;SDS011;13899;51.174;4.456;2024-01-27T01:14:46;14.97;;;5.90;;
25917;SDS011;13899;51.174;4.456;2024-01-27T01:17:12;21.30;;;8.67;;
25917;SDS011;13899;51.174;4.456;2024-01-27T01:19:38;21.23;;;8.68;;
25917;SDS011;13899;51.174;4.456;2024-01-27T01:22:04;14.83;;;7.53;;
25917;SDS011;13899;51.174;4.456;2024-01-27T01:24:30;21.67;;;7.63;;
25917;SDS011;13899;51.174;4.456;2024-01-27T01:26:55;18.33;;;7.57;;
25917;SDS011;13899;51.174;4.456;2024-01-27T01:29:21;11.77;;;6.10;;
25917;SDS011;13899;51.174;4.456;2024-01-27T01:31:47;11.53;;;7.83;;
25917;SDS011;13899;51.174;4.456;2024-01-27T01:34:13;19.83;;;7.60;;
25917;SDS011;13899;51.174;4.456;2024-01-27T01:36:38;22.87;;;8.50;;
25917;SDS011;13899;51.174;4.456;2024-01-27T01:39:04;23.43;;;8.57;;
25917;SDS011;13899;51.174;4.456;2024-01-27T01:41:31;17.92;;;8.35;;
25917;SDS011;13899;51.174;4.456;2024-01-27T01:43:57;11.93;;;8.10;;
25917;SDS011;13899;51.174;4.456;2024-01-27T01:46:22;15.83;;;6.80;;
25917;SDS011;13899;51.174;4.456;2024-01-27T01:48:51;15.90;;;9.20;;
25917;SDS011;13899;51.174;4.456;2024-01-27T01:51:16;17.63;;;8.40;;
25917;SDS011;13899;51.174;4.456;2024-01-27T01:53:42;22.67;;;8.97;;
25917;SDS011;13899;51.174;4.456;2024-01-27T01:56:10;19.80;;;9.40;;
25917;SDS011;13899;51.174;4.456;2024-01-27T01:58:38;17.67;;;8.77;;
25917;SDS011;13899;51.174;4.456;2024-01-27T02:01:04;17.37;;;9.87;;
25917;SDS011;13899;51.174;4.456;2024-01-27T02:03:29;13.57;;;8.07;;
25917;SDS011;13899;51.174;4.456;2024-01-27T02:05:55;19.63;;;9.63;;
25917;SDS011;13899;51.174;4.456;2024-01-27T02:08:21;16.92;;;7.68;;
25917;SDS011;13899;51.174;4.456;2024-01-27T02:10:47;21.70;;;8.57;;
25917;SDS011;13899;51.174;4.456;2024-01-27T02:15:46;20.33;;;10.73;;
25917;SDS011;13899;51.174;4.456;2024-01-27T02:18:12;23.35;;;9.60;;
25917;SDS011;13899;51.174;4.456;2024-01-27T02:20:38;21.00;;;9.30;;
25917;SDS011;13899;51.174;4.456;2024-01-27T02:23:04;21.30;;;9.83;;
25917;SDS011;13899;51.174;4.456;2024-01-27T02:25:31;21.92;;;9.43;;
25917;SDS011;13899;51.174;4.456;2024-01-27T02:27:57;27.65;;;10.00;;
25917;SDS011;13899;51.174;4.456;2024-01-27T02:30:22;10.77;;;8.20;;
25917;SDS011;13899;51.174;4.456;2024-01-27T02:32:48;16.07;;;7.70;;
25917;SDS011;13899;51.174;4.456;2024-01-27T02:35:14;14.70;;;9.63;;
25917;SDS011;13899;51.174;4.456;2024-01-27T02:37:40;17.87;;;9.17;;
25917;SDS011;13899;51.174;4.456;2024-01-27T02:40:07;19.83;;;9.75;;
25917;SDS011;13899;51.174;4.456;2024-01-27T02:42:34;24.15;;;9.68;;
25917;SDS011;13899;51.174;4.456;2024-01-27T02:45:01;20.08;;;9.13;;
25917;SDS011;13899;51.174;4.456;2024-01-27T02:47:27;12.35;;;7.20;;
25917;SDS011;13899;51.174;4.456;2024-01-27T02:49:53;21.00;;;9.17;;
25917;SDS011;13899;51.174;4.456;2024-01-27T02:52:18;15.47;;;8.80;;
25917;SDS011;13899;51.174;4.456;2024-01-27T02:54:44;18.53;;;7.37;;
25917;SDS011;13899;51.174;4.456;2024-01-27T02:57:10;15.63;;;9.73;;
25917;SDS011;13899;51.174;4.456;2024-01-27T02:59:36;20.83;;;11.37;;
25917;SDS011;13899;51.174;4.456;2024-01-27T03:02:04;17.50;;;10.80;;
25917;SDS011;13899;51.174;4.456;2024-01-27T03:04:30;24.38;;;10.05;;
25917;SDS011;13899;51.174;4.456;2024-01-27T03:06:55;14.03;;;7.30;;
25917;SDS011;13899;51.174;4.456;2024-01-27T03:09:21;20.30;;;8.53;;
25917;SDS011;13899;51.174;4.456;2024-01-27T03:11:46;28.43;;;10.57;;
25917;SDS011;13899;51.174;4.456;2024-01-27T03:14:12;20.50;;;10.93;;
25917;SDS011;13899;51.174;4.456;2024-01-27T03:16:38;22.90;;;10.67;;
25917;SDS011;13899;51.174;4.456;2024-01-27T03:19:03;24.93;;;11.37;;
25917;SDS011;13899;51.174;4.456;2024-01-27T03:21:29;18.27;;;9.90;;
25917;SDS011;13899;51.174;4.456;2024-01-27T03:23:55;22.75;;;9.93;;
25917;SDS011;13899;51.174;4.456;2024-01-27T03:26:21;22.70;;;10.97;;
25917;SDS011;13899;51.174;4.456;2024-01-27T03:28:46;21.70;;;10.00;;
25917;SDS011;13899;51.174;4.456;2024-01-27T03:31:12;16.67;;;9.70;;
25917;SDS011;13899;51.174;4.456;2024-01-27T03:33:38;18.53;;;9.30;;
25917;SDS011;13899;51.174;4.456;2024-01-27T03:36:08;13.60;;;9.07;;
25917;SDS011;13899;51.174;4.456;2024-01-27T03:38:41;17.15;;;8.98;;
25917;SDS011;13899;51.174;4.456;2024-01-27T03:41:06;23.33;;;10.57;;
25917;SDS011;13899;51.174;4.456;2024-01-27T03:43:33;19.87;;;10.40;;
25917;SDS011;13899;51.174;4.456;2024-01-27T03:45:59;22.10;;;10.27;;
25917;SDS011;13899;51.174;4.456;2024-01-27T03:48:25;26.63;;;11.15;;
25917;SDS011;13899;51.174;4.456;2024-01-27T03:50:50;23.83;;;10.70;;
25917;SDS011;13899;51.174;4.456;2024-01-27T03:53:16;20.00;;;8.03;;
25917;SDS011;13899;51.174;4.456;2024-01-27T03:55:42;13.10;;;7.70;;
25917;SDS011;13899;51.174;4.456;2024-01-27T03:58:07;20.77;;;10.63;;
25917;SDS011;13899;51.174;4.456;2024-01-27T04:00:33;14.47;;;7.93;;
25917;SDS011;13899;51.174;4.456;2024-01-27T04:02:59;23.93;;;11.03;;
25917;SDS011;13899;51.174;4.456;2024-01-27T04:05:25;15.55;;;10.63;;
25917;SDS011;13899;51.174;4.456;2024-01-27T04:07:52;20.52;;;10.70;;
25917;SDS011;13899;51.174;4.456;2024-01-27T04:10:18;24.25;;;10.00;;
25917;SDS011;13899;51.174;4.456;2024-01-27T04:12:44;24.00;;;11.30;;
25917;SDS011;13899;51.174;4.456;2024-01-27T04:15:10;20.63;;;9.63;;
25917;SDS011;13899;51.174;4.456;2024-01-27T04:17:36;19.50;;;11.97;;
25917;SDS011;13899;51.174;4.456;2024-01-27T04:20:02;24.42;;;11.05;;
25917;SDS011;13899;51.174;4.456;2024-01-27T04:22:29;18.58;;;10.45;;
25917;SDS011;13899;51.174;4.456;2024-01-27T04:24:55;23.17;;;11.47;;
25917;SDS011;13899;51.174;4.456;2024-01-27T04:27:21;22.83;;;10.47;;
25917;SDS011;13899;51.174;4.456;2024-01-27T04:29:47;16.65;;;10.48;;
25917;SDS011;13899;51.174;4.456;2024-01-27T04:32:13;20.97;;;9.90;;
25917;SDS011;13899;51.174;4.456;2024-01-27T04:34:38;12.03;;;7.70;;
25917;SDS011;13899;51.174;4.456;2024-01-27T04:37:04;33.13;;;11.43;;
25917;SDS011;13899;51.174;4.456;2024-01-27T04:39:30;21.20;;;10.50;;
25917;SDS011;13899;51.174;4.456;2024-01-27T04:41:56;19.67;;;11.33;;
25917;SDS011;13899;51.174;4.456;2024-01-27T04:44:22;13.43;;;9.00;;
25917;SDS011;13899;51.174;4.456;2024-01-27T04:46:47;27.30;;;11.73;;
25917;SDS011;13899;51.174;4.456;2024-01-27T04:49:14;16.60;;;8.80;;
25917;SDS011;13899;51.174;4.456;2024-01-27T04:51:40;19.70;;;11.05;;
25917;SDS011;13899;51.174;4.456;2024-01-27T04:54:06;19.70;;;11.43;;
25917;SDS011;13899;51.174;4.456;2024-01-27T04:56:32;22.35;;;13.15;;
25917;SDS011;13899;51.174;4.456;2024-01-27T04:58:58;15.43;;;12.07;;
25917;SDS011;13899;51.174;4.456;2024-01-27T05:01:24;20.73;;;12.70;;
25917;SDS011;13899;51.174;4.456;2024-01-27T05:03:49;19.63;;;12.17;;
25917;SDS011;13899;51.174;4.456;2024-01-27T05:06:15;28.30;;;12.23;;
25917;SDS011;13899;51.174;4.456;2024-01-27T05:08:41;26.67;;;13.83;;
25917;SDS011;13899;51.174;4.456;2024-01-27T05:11:07;24.13;;;12.60;;
25917;SDS011;13899;51.174;4.456;2024-01-27T05:13:32;20.10;;;12.33;;
25917;SDS011;13899;51.174;4.456;2024-01-27T05:15:58;21.07;;;13.40;;
25917;SDS011;13899;51.174;4.456;2024-01-27T05:18:24;25.37;;;13.07;;
25917;SDS011;13899;51.174;4.456;2024-01-27T05:20:49;19.90;;;10.03;;
25917;SDS011;13899;51.174;4.456;2024-01-27T05:23:15;27.53;;;13.37;;
25917;SDS011;13899;51.174;4.456;2024-01-27T05:25:40;24.37;;;12.47;;
25917;SDS011;13899;51.174;4.456;2024-01-27T05:28:06;24.47;;;13.53;;
25917;SDS011;13899;51.174;4.456;2024-01-27T05:30:32;26.25;;;12.23;;
25917;SDS011;13899;51.174;4.456;2024-01-27T05:32:58;22.60;;;13.40;;
25917;SDS011;13899;51.174;4.456;2024-01-27T05:35:23;23.30;;;10.90;;
25917;SDS011;13899;51.174;4.456;2024-01-27T05:37:49;30.10;;;13.60;;
25917;SDS011;13899;51.174;4.456;2024-01-27T05:40:16;25.15;;;14.60;;
25917;SDS011;13899;51.174;4.456;2024-01-27T05:42:42;24.47;;;13.87;;
25917;SDS011;13899;51.174;4.456;2024-01-27T05:45:10;21.90;;;13.18;;
25917;SDS011;13899;51.174;4.456;2024-01-27T05:47:35;37.47;;;15.20;;
25917;SDS011;13899;51.174;4.456;2024-01-27T05:50:01;22.97;;;13.43;;
25917;SDS011;13899;51.174;4.456;2024-01-27T05:52:27;21.50;;;12.95;;
25917;SDS011;13899;51.174;4.456;2024-01-27T05:54:53;28.67;;;15.23;;
25917;SDS011;13899;51.174;4.456;2024-01-27T05:57:19;26.30;;;14.70;;
25917;SDS011;13899;51.174;4.456;2024-01-27T05:59:45;24.05;;;13.98;;
25917;SDS011;13899;51.174;4.456;2024-01-27T06:02:11;15.20;;;11.03;;
25917;SDS011;13899;51.174;4.456;2024-01-27T06:04:37;24.03;;;13.30;;
25917;SDS011;13899;51.174;4.456;2024-01-27T06:07:02;20.93;;;14.37;;
25917;SDS011;13899;51.174;4.456;2024-01-27T06:09:28;19.07;;;10.67;;
25917;SDS011;13899;51.174;4.456;2024-01-27T06:11:57;18.43;;;12.07;;
25917;SDS011;13899;51.174;4.456;2024-01-27T06:14:24;30.33;;;14.48;;
25917;SDS011;13899;51.174;4.456;2024-01-27T06:16:50;21.90;;;14.33;;
25917;SDS011;13899;51.174;4.456;2024-01-27T06:19:16;24.55;;;15.75;;
25917;SDS011;13899;51.174;4.456;2024-01-27T06:21:42;25.83;;;15.93;;
25917;SDS011;13899;51.174;4.456;2024-01-27T06:24:07;27.80;;;12.60;;
25917;SDS011;13899;51.174;4.456;2024-01-27T06:26:33;26.63;;;17.00;;
25917;SDS011;13899;51.174;4.456;2024-01-27T06:28:58;13.30;;;10.77;;
25917;SDS011;13899;51.174;4.456;2024-01-27T06:31:25;32.03;;;15.60;;
25917;SDS011;13899;51.174;4.456;2024-01-27T06:33:51;28.20;;;15.07;;
25917;SDS011;13899;51.174;4.456;2024-01-27T06:36:16;25.23;;;12.13;;
25917;SDS011;13899;51.174;4.456;2024-01-27T06:38:42;22.77;;;12.37;;
25917;SDS011;13899;51.174;4.456;2024-01-27T06:41:07;28.83;;;12.83;;
25917;SDS011;13899;51.174;4.456;2024-01-27T06:43:34;31.33;;;15.77;;
25917;SDS011;13899;51.174;4.456;2024-01-27T06:46:00;23.93;;;14.57;;
25917;SDS011;13899;51.174;4.456;2024-01-27T06:48:25;36.90;;;16.77;;
25917;SDS011;13899;51.174;4.456;2024-01-27T06:50:51;29.67;;;15.93;;
25917;SDS011;13899;51.174;4.456;2024-01-27T06:53:20;29.23;;;15.17;;
25917;SDS011;13899;51.174;4.456;2024-01-27T06:55:46;27.52;;;14.65;;
25917;SDS011;13899;51.174;4.456;2024-01-27T06:58:12;25.50;;;14.93;;
25917;SDS011;13899;51.174;4.456;2024-01-27T07:00:38;26.07;;;14.23;;
25917;SDS011;13899;51.174;4.456;2024-01-27T07:03:04;27.73;;;12.83;;
25917;SDS011;13899;51.174;4.456;2024-01-27T07:05:29;13.23;;;11.03;;
25917;SDS011;13899;51.174;4.456;2024-01-27T07:07:58;29.38;;;14.82;;
25917;SDS011;13899;51.174;4.456;2024-01-27T07:10:23;29.43;;;14.83;;
25917;SDS011;13899;51.174;4.456;2024-01-27T07:12:49;28.17;;;15.47;;
25917;SDS011;13899;51.174;4.456;2024-01-27T07:15:14;27.97;;;14.10;;
25917;SDS011;13899;51.174;4.456;2024-01-27T07:17:40;30.13;;;13.90;;
25917;SDS011;13899;51.174;4.456;2024-01-27T07:20:06;33.67;;;13.97;;
25917;SDS011;13899;51.174;4.456;2024-01-27T07:22:33;21.30;;;14.13;;
25917;SDS011;13899;51.174;4.456;2024-01-27T07:24:58;37.20;;;14.03;;
25917;SDS011;13899;51.174;4.456;2024-01-27T07:27:24;20.73;;;10.23;;
25917;SDS011;13899;51.174;4.456;2024-01-27T07:29:50;24.57;;;11.87;;
25917;SDS011;13899;51.174;4.456;2024-01-27T07:32:16;26.83;;;14.30;;
25917;SDS011;13899;51.174;4.456;2024-01-27T07:34:42;20.63;;;10.67;;
25917;SDS011;13899;51.174;4.456;2024-01-27T07:37:09;27.55;;;14.57;;
25917;SDS011;13899;51.174;4.456;2024-01-27T07:39:34;27.02;;;14.77;;
25917;SDS011;13899;51.174;4.456;2024-01-27T07:42:00;26.42;;;13.73;;
25917;SDS011;13899;51.174;4.456;2024-01-27T07:44:26;35.37;;;14.13;;
25917;SDS011;13899;51.174;4.456;2024-01-27T07:46:52;38.00;;;16.27;;
25917;SDS011;13899;51.174;4.456;2024-01-27T07:49:17;34.53;;;14.37;;
25917;SDS011;13899;51.174;4.456;2024-01-27T07:51:43;24.93;;;14.70;;
25917;SDS011;13899;51.174;4.456;2024-01-27T07:54:09;22.92;;;11.75;;
25917;SDS011;13899;51.174;4.456;2024-01-27T07:56:35;25.60;;;14.60;;
25917;SDS011;13899;51.174;4.456;2024-01-27T08:01:27;26.63;;;14.90;;
25917;SDS011;13899;51.174;4.456;2024-01-27T08:03:54;25.13;;;14.30;;
25917;SDS011;13899;51.174;4.456;2024-01-27T08:06:26;26.03;;;14.97;;
25917;SDS011;13899;51.174;4.456;2024-01-27T08:08:54;24.42;;;13.20;;
25917;SDS011;13899;51.174;4.456;2024-01-27T08:11:20;28.60;;;15.27;;
25917;SDS011;13899;51.174;4.456;2024-01-27T08:13:45;28.90;;;14.50;;
25917;SDS011;13899;51.174;4.456;2024-01-27T08:16:11;34.93;;;11.60;;
25917;SDS011;13899;51.174;4.456;2024-01-27T08:21:10;31.15;;;14.70;;
25917;SDS011;13899;51.174;4.456;2024-01-27T08:23:39;33.40;;;14.35;;
25917;SDS011;13899;51.174;4.456;2024-01-27T08:26:06;27.00;;;14.23;;
25917;SDS011;13899;51.174;4.456;2024-01-27T08:28:31;37.37;;;14.87;;
25917;SDS011;13899;51.174;4.456;2024-01-27T08:30:57;26.50;;;14.73;;
25917;SDS011;13899;51.174;4.456;2024-01-27T08:33:24;21.75;;;13.15;;
25917;SDS011;13899;51.174;4.456;2024-01-27T08:35:50;16.83;;;10.50;;
25917;SDS011;13899;51.174;4.456;2024-01-27T08:38:16;31.48;;;14.43;;
25917;SDS011;13899;51.174;4.456;2024-01-27T08:40:42;33.37;;;14.27;;
25917;SDS011;13899;51.174;4.456;2024-01-27T08:43:08;37.63;;;13.80;;
25917;SDS011;13899;51.174;4.456;2024-01-27T08:45:35;22.95;;;13.38;;
25917;SDS011;13899;51.174;4.456;2024-01-27T08:48:02;27.98;;;13.50;;
25917;SDS011;13899;51.174;4.456;2024-01-27T08:50:28;27.40;;;14.63;;
25917;SDS011;13899;51.174;4.456;2024-01-27T08:52:54;26.30;;;12.33;;
25917;SDS011;13899;51.174;4.456;2024-01-27T08:55:19;25.60;;;12.60;;
25917;SDS011;13899;51.174;4.456;2024-01-27T08:57:48;27.70;;;10.98;;
25917;SDS011;13899;51.174;4.456;2024-01-27T09:00:15;28.48;;;12.90;;
25917;SDS011;13899;51.174;4.456;2024-01-27T09:02:42;28.30;;;12.27;;
25917;SDS011;13899;51.174;4.456;2024-01-27T09:05:07;31.60;;;11.25;;
25917;SDS011;13899;51.174;4.456;2024-01-27T09:07:33;18.80;;;9.30;;
25917;SDS011;13899;51.174;4.456;2024-01-27T09:09:59;18.15;;;11.20;;
25917;SDS011;13899;51.174;4.456;2024-01-27T09:12:25;35.40;;;12.30;;
25917;SDS011;13899;51.174;4.456;2024-01-27T09:14:50;19.67;;;11.03;;
25917;SDS011;13899;51.174;4.456;2024-01-27T09:17:16;23.67;;;11.50;;
25917;SDS011;13899;51.174;4.456;2024-01-27T09:19:42;26.70;;;10.77;;
25917;SDS011;13899;51.174;4.456;2024-01-27T09:22:07;21.90;;;10.90;;
25917;SDS011;13899;51.174;4.456;2024-01-27T09:24:33;19.70;;;10.30;;
25917;SDS011;13899;51.174;4.456;2024-01-27T09:26:59;28.00;;;10.73;;
25917;SDS011;13899;51.174;4.456;2024-01-27T09:29:24;24.83;;;10.03;;
25917;SDS011;13899;51.174;4.456;2024-01-27T09:31:50;22.10;;;10.37;;
25917;SDS011;13899;51.174;4.456;2024-01-27T09:34:15;18.03;;;10.43;;
25917;SDS011;13899;51.174;4.456;2024-01-27T09:36:41;21.03;;;9.27;;
25917;SDS011;13899;51.174;4.456;2024-01-27T09:39:07;24.13;;;9.63;;
25917;SDS011;13899;51.174;4.456;2024-01-27T09:41:33;22.38;;;8.57;;
25917;SDS011;13899;51.174;4.456;2024-01-27T09:43:59;18.77;;;9.00;;
25917;SDS011;13899;51.174;4.456;2024-01-27T09:46:27;27.40;;;9.50;;
25917;SDS011;13899;51.174;4.456;2024-01-27T09:48:53;20.33;;;8.43;;
25917;SDS011;13899;51.174;4.456;2024-01-27T09:51:19;21.50;;;8.80;;
25917;SDS011;13899;51.174;4.456;2024-01-27T09:53:45;16.57;;;7.87;;
25917;SDS011;13899;51.174;4.456;2024-01-27T09:56:12;13.83;;;7.03;;
25917;SDS011;13899;51.174;4.456;2024-01-27T09:58:43;21.38;;;7.82;;
25917;SDS011;13899;51.174;4.456;2024-01-27T10:01:09;11.15;;;5.82;;
25917;SDS011;13899;51.174;4.456;2024-01-27T10:03:36;13.25;;;6.97;;
25917;SDS011;13899;51.174;4.456;2024-01-27T10:06:05;10.88;;;5.03;;
25917;SDS011;13899;51.174;4.456;2024-01-27T10:08:33;14.45;;;7.13;;
25917;SDS011;13899;51.174;4.456;2024-01-27T10:10:59;8.87;;;6.60;;
25917;SDS011;13899;51.174;4.456;2024-01-27T10:13:25;12.60;;;5.65;;
25917;SDS011;13899;51.174;4.456;2024-01-27T10:18:30;15.20;;;5.40;;
25917;SDS011;13899;51.174;4.456;2024-01-27T10:20:56;11.63;;;5.65;;
25917;SDS011;13899;51.174;4.456;2024-01-27T10:23:22;12.68;;;5.82;;
25917;SDS011;13899;51.174;4.456;2024-01-27T10:25:48;13.20;;;5.10;;
25917;SDS011;13899;51.174;4.456;2024-01-27T10:28:14;13.00;;;4.32;;
25917;SDS011;13899;51.174;4.456;2024-01-27T10:30:40;12.85;;;4.78;;
25917;SDS011;13899;51.174;4.456;2024-01-27T10:33:09;9.38;;;4.57;;
25917;SDS011;13899;51.174;4.456;2024-01-27T10:35:42;11.95;;;5.95;;
25917;SDS011;13899;51.174;4.456;2024-01-27T10:40:35;13.07;;;9.40;;
25917;SDS011;13899;51.174;4.456;2024-01-27T10:43:03;14.45;;;7.18;;
25917;SDS011;13899;51.174;4.456;2024-01-27T10:48:03;20.25;;;5.82;;
25917;SDS011;13899;51.174;4.456;2024-01-27T10:50:34;12.88;;;5.00;;
25917;SDS011;13899;51.174;4.456;2024-01-27T10:53:02;15.43;;;5.75;;
25917;SDS011;13899;51.174;4.456;2024-01-27T10:55:34;13.73;;;4.65;;
25917;SDS011;13899;51.174;4.456;2024-01-27T10:58:02;18.85;;;9.48;;
25917;SDS011;13899;51.174;4.456;2024-01-27T11:00:29;11.73;;;4.47;;
25917;SDS011;13899;51.174;4.456;2024-01-27T11:02:57;13.68;;;7.38;;
25917;SDS011;13899;51.174;4.456;2024-01-27T11:05:24;12.63;;;8.93;;
25917;SDS011;13899;51.174;4.456;2024-01-27T11:07:52;12.85;;;8.07;;
25917;SDS011;13899;51.174;4.456;2024-01-27T11:10:18;17.00;;;8.80;;
25917;SDS011;13899;51.174;4.456;2024-01-27T11:12:44;12.67;;;5.20;;
25917;SDS011;13899;51.174;4.456;2024-01-27T11:15:12;15.73;;;5.80;;
25917;SDS011;13899;51.174;4.456;2024-01-27T11:17:41;17.67;;;7.70;;
25917;SDS011;13899;51.174;4.456;2024-01-27T11:20:07;18.33;;;6.05;;
25917;SDS011;13899;51.174;4.456;2024-01-27T11:22:36;13.27;;;4.68;;
25917;SDS011;13899;51.174;4.456;2024-01-27T11:27:37;11.98;;;7.47;;
25917;SDS011;13899;51.174;4.456;2024-01-27T11:30:30;12.20;;;7.97;;
25917;SDS011;13899;51.174;4.456;2024-01-27T11:32:56;9.18;;;3.28;;
25917;SDS011;13899;51.174;4.456;2024-01-27T11:35:22;11.30;;;4.95;;
25917;SDS011;13899;51.174;4.456;2024-01-27T11:37:51;9.05;;;3.55;;
25917;SDS011;13899;51.174;4.456;2024-01-27T11:40:17;15.50;;;12.37;;
25917;SDS011;13899;51.174;4.456;2024-01-27T11:42:43;10.32;;;3.33;;
25917;SDS011;13899;51.174;4.456;2024-01-27T11:45:18;14.35;;;8.15;;
25917;SDS011;13899;51.174;4.456;2024-01-27T11:47:44;15.90;;;14.37;;
25917;SDS011;13899;51.174;4.456;2024-01-27T11:50:10;11.20;;;7.70;;
25917;SDS011;13899;51.174;4.456;2024-01-27T11:55:03;14.37;;;7.20;;
25917;SDS011;13899;51.174;4.456;2024-01-27T11:57:29;12.82;;;7.95;;
25917;SDS011;13899;51.174;4.456;2024-01-27T11:59:55;18.60;;;10.38;;
25917;SDS011;13899;51.174;4.456;2024-01-27T12:02:22;20.50;;;15.77;;
25917;SDS011;13899;51.174;4.456;2024-01-27T12:04:52;12.02;;;4.28;;
25917;SDS011;13899;51.174;4.456;2024-01-27T12:09:45;12.13;;;4.50;;
25917;SDS011;13899;51.174;4.456;2024-01-27T12:12:11;9.45;;;3.70;;
25917;SDS011;13899;51.174;4.456;2024-01-27T12:14:39;13.60;;;8.90;;
25917;SDS011;13899;51.174;4.456;2024-01-27T12:17:14;14.40;;;6.72;;
25917;SDS011;13899;51.174;4.456;2024-01-27T12:19:47;15.00;;;10.68;;
25917;SDS011;13899;51.174;4.456;2024-01-27T12:25:07;13.90;;;6.55;;
25917;SDS011;13899;51.174;4.456;2024-01-27T12:27:38;14.00;;;11.48;;
25917;SDS011;13899;51.174;4.456;2024-01-27T12:30:09;18.50;;;10.25;;
25917;SDS011;13899;51.174;4.456;2024-01-27T12:32:38;12.55;;;9.05;;
25917;SDS011;13899;51.174;4.456;2024-01-27T12:35:04;15.30;;;10.23;;
25917;SDS011;13899;51.174;4.456;2024-01-27T12:37:30;14.35;;;10.65;;
25917;SDS011;13899;51.174;4.456;2024-01-27T12:39:56;17.40;;;12.47;;
25917;SDS011;13899;51.174;4.456;2024-01-27T12:42:22;18.87;;;11.50;;
25917;SDS011;13899;51.174;4.456;2024-01-27T12:44:48;24.10;;;8.47;;
25917;SDS011;13899;51.174;4.456;2024-01-27T12:47:14;11.73;;;8.20;;
25917;SDS011;13899;51.174;4.456;2024-01-27T12:49:40;11.47;;;9.30;;
25917;SDS011;13899;51.174;4.456;2024-01-27T12:52:06;17.50;;;10.27;;
25917;SDS011;13899;51.174;4.456;2024-01-27T12:54:32;13.20;;;9.10;;
25917;SDS011;13899;51.174;4.456;2024-01-27T12:56:58;23.60;;;11.63;;
25917;SDS011;13899;51.174;4.456;2024-01-27T12:59:26;20.92;;;8.20;;
25917;SDS011;13899;51.174;4.456;2024-01-27T13:01:52;12.53;;;3.80;;
25917;SDS011;13899;51.174;4.456;2024-01-27T13:04:18;20.40;;;9.40;;
25917;SDS011;13899;51.174;4.456;2024-01-27T13:06:44;13.60;;;10.73;;
25917;SDS011;13899;51.174;4.456;2024-01-27T13:09:10;8.93;;;2.90;;
25917;SDS011;13899;51.174;4.456;2024-01-27T13:11:39;14.90;;;4.13;;
25917;SDS011;13899;51.174;4.456;2024-01-27T13:14:05;9.47;;;3.20;;
25917;SDS011;13899;51.174;4.456;2024-01-27T13:16:32;11.48;;;6.20;;
25917;SDS011;13899;51.174;4.456;2024-01-27T13:18:59;8.03;;;3.43;;
25917;SDS011;13899;51.174;4.456;2024-01-27T13:21:25;13.32;;;3.97;;
25917;SDS011;13899;51.174;4.456;2024-01-27T13:23:51;8.07;;;3.17;;
25917;SDS011;13899;51.174;4.456;2024-01-27T13:26:17;10.75;;;3.80;;
25917;SDS011;13899;51.174;4.456;2024-01-27T13:28:43;13.47;;;3.90;;
25917;SDS011;13899;51.174;4.456;2024-01-27T13:31:10;10.10;;;2.78;;
25917;SDS011;13899;51.174;4.456;2024-01-27T13:33:36;7.93;;;2.90;;
25917;SDS011;13899;51.174;4.456;2024-01-27T13:36:01;13.17;;;3.17;;
25917;SDS011;13899;51.174;4.456;2024-01-27T13:38:27;12.60;;;4.77;;
25917;SDS011;13899;51.174;4.456;2024-01-27T13:40:54;9.30;;;3.50;;
25917;SDS011;13899;51.174;4.456;2024-01-27T13:43:19;9.57;;;3.47;;
25917;SDS011;13899;51.174;4.456;2024-01-27T13:45:45;9.77;;;3.23;;
25917;SDS011;13899;51.174;4.456;2024-01-27T13:48:12;12.82;;;4.30;;
25917;SDS011;13899;51.174;4.456;2024-01-27T13:50:38;7.50;;;3.45;;
25917;SDS011;13899;51.174;4.456;2024-01-27T13:53:04;10.77;;;6.73;;
25917;SDS011;13899;51.174;4.456;2024-01-27T13:55:31;12.90;;;7.65;;
25917;SDS011;13899;51.174;4.456;2024-01-27T13:57:57;15.77;;;14.48;;
25917;SDS011;13899;51.174;4.456;2024-01-27T14:00:22;9.57;;;3.67;;
25917;SDS011;13899;51.174;4.456;2024-01-27T14:02:48;9.32;;;7.47;;
25917;SDS011;13899;51.174;4.456;2024-01-27T14:05:14;9.27;;;3.50;;
25917;SDS011;13899;51.174;4.456;2024-01-27T14:07:39;10.93;;;3.28;;
25917;SDS011;13899;51.174;4.456;2024-01-27T14:10:05;13.93;;;12.80;;
25917;SDS011;13899;51.174;4.456;2024-01-27T14:42:32;14.13;;;5.68;;
25917;SDS011;13899;51.174;4.456;2024-01-27T14:45:01;9.45;;;3.22;;
25917;SDS011;13899;51.174;4.456;2024-01-27T14:47:26;8.13;;;4.05;;
25917;SDS011;13899;51.174;4.456;2024-01-27T14:49:52;7.60;;;6.43;;
25917;SDS011;13899;51.174;4.456;2024-01-27T14:52:18;14.87;;;3.40;;
25917;SDS011;13899;51.174;4.456;2024-01-27T14:54:44;10.15;;;3.80;;
25917;SDS011;13899;51.174;4.456;2024-01-27T14:57:10;9.05;;;3.20;;
25917;SDS011;13899;51.174;4.456;2024-01-27T14:59:36;7.70;;;3.55;;
25917;SDS011;13899;51.174;4.456;2024-01-27T15:02:04;6.80;;;3.15;;
25917;SDS011;13899;51.174;4.456;2024-01-27T15:04:30;11.50;;;4.53;;
25917;SDS011;13899;51.174;4.456;2024-01-27T15:06:56;6.72;;;3.28;;
25917;SDS011;13899;51.174;4.456;2024-01-27T15:09:22;13.10;;;3.88;;
25917;SDS011;13899;51.174;4.456;2024-01-27T15:11:49;7.20;;;3.50;;
25917;SDS011;13899;51.174;4.456;2024-01-27T15:14:15;7.28;;;3.08;;
25917;SDS011;13899;51.174;4.456;2024-01-27T15:16:42;10.27;;;3.53;;
25917;SDS011;13899;51.174;4.456;2024-01-27T15:19:07;10.13;;;3.10;;
25917;SDS011;13899;51.174;4.456;2024-01-27T15:21:33;15.60;;;4.15;;